This is the latest recevied weather packets stored in our database for station/object YG1CIC-13. If no packets are shown the sender has not sent any weather packets the latest 10 day(s).
| Time | Temp. | Humidity | Pressure | Rain* | Wind** | Luminosity | Snow |
|---|---|---|---|---|---|---|---|
| 1778058920 | 33.89° C | 72% | - | 0 mm | - | - | - |
| 1778058319 | 33.89° C | 72% | - | 0 mm | - | - | - |
| 1778057718 | 33.33° C | 72% | - | 0 mm | - | - | - |
| 1778057117 | 33.89° C | 71% | - | 0 mm | - | - | - |
| 1778056516 | 33.89° C | 69% | - | 0 mm | - | - | - |
| 1778055915 | 34.44° C | 69% | - | 0 mm | - | - | - |
| 1778055315 | 34.44° C | 69% | - | 0 mm | - | - | - |
| 1778054715 | 34.44° C | 71% | - | 0 mm | - | - | - |
| 1778054115 | 35° C | 69% | - | 0 mm | - | - | - |
| 1778053514 | 35.56° C | 69% | - | 0 mm | - | - | - |
| 1778052914 | 35° C | 70% | - | 0 mm | - | - | - |
| 1778052314 | 35° C | 70% | - | 0 mm | - | - | - |
| 1778051713 | 34.44° C | 70% | - | 0 mm | - | - | - |
| 1778051113 | 35.56° C | 68% | - | 0 mm | - | - | - |
| 1778050513 | 35.56° C | 68% | - | 0 mm | - | - | - |
| 1778049913 | 35.56° C | 68% | - | 0 mm | - | - | - |
| 1778049313 | 35.56° C | 68% | - | 0 mm | - | - | - |
| 1778048713 | 35.56° C | 68% | - | 0 mm | - | - | - |
| 1778048113 | 36.67° C | 65% | - | 0 mm | - | - | - |
| 1778047512 | 35.56° C | 68% | - | 0 mm | - | - | - |
| 1778046912 | 35.56° C | 66% | - | 0 mm | - | - | - |
| 1778046312 | 36.67° C | 63% | - | 0 mm | - | - | - |
| 1778045712 | 36.11° C | 64% | - | 0 mm | - | - | - |
| 1778045112 | 36.11° C | 62% | - | 0 mm | - | - | - |
| 1778044519 | 35.56° C | 63% | - | 0 mm | - | - | - |
* Rain latest hour (hover to see other rain measurements)
** Current wind speed in m/s (hover to see current wind gust speed)